Latest Weather Observations for Century Mine

IDQ60801

Issued at 4:35 am EST Saturday 22 November 2014 (issued every 30 minutes, with the page automatically refreshed every 10 minutes)

About weather observations | Map of weather stations | Latest weather observations for QLD | Other Formats
Station Details ID: 029167 Name: CENTURY MINE Lat: -18.76 Lon: 138.71 Height: 126.8 m
Data from the previous 72 hours. | See also: Recent months at Century Mine
Date/Time
EST
Temp
°C
App
Temp
°C
Dew
Point
Rel
Hum
%
Delta-T
°C
Wind Press
QNH
hPa
Press
MSL
hPa
Rain
since 9 am
mm
Dir
 
Spd
km/h
Gust
km/h
Spd
kts
Gust
kts
22/04:30am 26.5 27.5 18.6 62 5.1 E 11 15 6 8 1010.8 1009.9 0.0
22/04:00am 26.7 29.8 19.6 65 4.6 NNE 2 7 1 4 1010.5 1009.6 0.0
22/03:30am 26.3 27.6 19.2 65 4.6 NNE 11 15 6 8 1010.0 1009.1 0.0
22/03:00am 26.7 25.9 17.2 56 6.0 NNE 17 26 9 14 1011.3 1010.4 0.0
22/02:30am 26.9 26.8 17.9 57 5.7 ENE 15 24 8 13 1011.3 1010.4 0.0
22/02:00am 26.5 25.8 18.6 62 5.1 ENE 20 33 11 18 1012.3 1011.3 0.0
22/01:43am 26.5 24.2 18.4 61 5.2 E 28 46 15 25 1012.3 1011.3 0.0
22/01:30am 26.4 23.3 18.5 62 5.1 E 32 48 17 26 1012.7 1011.7 0.0
22/01:00am 27.9 24.6 17.1 51 6.8 E 30 56 16 30 1012.8 1011.8 0.0
22/12:58am 28.2 25.2 16.8 50 7.2 E 28 56 15 30 1012.7 1011.7 0.0
22/12:56am 29.4 27.1 17.6 49 7.5 E 26 56 14 30 1012.7 1011.7 0.0
22/12:30am 29.5 30.9 17.7 49 7.5 NNE 7 9 4 5 1010.5 1009.6 0.0
22/12:00am 29.5 30.7 17.3 47 7.8 NNE 7 9 4 5 1011.4 1010.5 0.0
 
Date/Time
EST
Temp
°C
App
Temp
°C
Dew
Point
Rel
Hum
%
Delta-T
°C
Wind Press
QNH
hPa
Press
MSL
hPa
Rain
since 9 am
mm
Dir
 
Spd
km/h
Gust
km/h
Spd
kts
Gust
kts
21/11:30pm 29.7 30.5 17.2 47 7.9 WNW 9 13 5 7 1011.4 1010.5 0.0
21/11:00pm 29.5 30.4 16.7 46 8.1 SSW 7 13 4 7 1011.6 1010.7 0.0
21/10:30pm 30.4 27.8 16.8 44 8.6 SSW 26 41 14 22 1012.0 1011.0 0.0
21/10:27pm 31.3 28.2 16.5 41 9.3 SW 28 41 15 22 1012.1 1011.1 0.0
21/10:00pm 33.4 33.6 16.7 36 10.7 S 11 19 6 10 1010.6 1009.7 0.0
21/09:30pm 33.9 35.4 21.3 47 8.6 NNE 15 22 8 12 1009.4 1008.5 0.0
21/09:00pm 34.7 35.1 21.0 44 9.3 NNE 20 30 11 16 1008.8 1007.9 0.0
21/08:30pm 35.5 35.7 20.6 41 10.1 NNE 20 30 11 16 1008.6 1007.7 0.0
21/08:00pm 36.3 35.9 20.1 38 10.9 NNE 22 32 12 17 1007.8 1006.9 0.0
21/07:30pm 37.3 36.3 18.8 33 12.3 NNE 22 33 12 18 1007.1 1006.1 0.0
21/07:00pm 38.3 37.1 17.1 28 13.8 NNE 19 26 10 14 1006.7 1005.7 0.0
21/06:30pm 39.4 38.0 14.4 22 15.7 NNE 15 22 8 12 1006.4 1005.4 0.0
21/06:00pm 40.8 38.6 13.4 20 17.1 N 17 26 9 14 1005.9 1004.9 0.0
21/05:30pm 41.3 39.0 13.0 19 17.6 NNE 17 26 9 14 1005.7 1004.7 0.0
21/05:00pm 42.1 40.5 12.9 18 18.2 NNE 13 24 7 13 1005.6 1004.6 0.0
21/04:30pm 40.7 37.8 10.9 17 18.0 NNE 17 24 9 13 1005.8 1004.8 0.0
21/04:00pm 42.1 39.4 12.9 18 18.2 NNE 19 30 10 16 1006.1 1005.1 0.0
21/03:30pm 42.5 40.0 12.3 17 18.7 N 17 28 9 15 1006.5 1005.5 0.0
21/03:00pm 41.5 39.4 12.4 18 18.0 NNE 15 26 8 14 1006.9 1005.9 0.0
21/02:30pm 42.7 41.6 14.2 19 18.1 NNE 13 26 7 14 1007.4 1006.4 0.0
21/02:00pm 42.1 39.7 13.7 19 17.9 NNW 19 24 10 13 1008.1 1007.2 0.0
21/01:30pm 42.1 39.7 14.5 20 17.5 N 20 28 11 15 1008.7 1007.8 0.0
21/01:00pm 41.0 39.4 15.1 22 16.6 NW 17 20 9 11 1009.3 1008.4 0.0
21/12:30pm 40.6 39.3 14.7 21 16.4 N 15 30 8 16 1009.9 1009.0 0.0
21/12:00pm 40.9 39.2 15.7 23 16.2 NNW 19 28 10 15 1010.5 1009.6 0.0
21/11:30am 39.9 37.7 14.8 22 15.9 NNE 20 28 11 15 1011.0 1010.1 0.0
21/11:00am 40.0 38.3 16.2 24 15.4 NNW 20 32 11 17 1011.2 1010.3 0.0
21/10:30am 38.7 36.2 15.1 24 15.0 N 22 33 12 18 1011.6 1010.7 0.0
21/10:00am 38.3 37.3 16.6 28 14.0 N 17 30 9 16 1011.9 1010.9 0.0
21/09:30am 36.1 35.9 16.8 32 12.4 NNW 13 26 7 14 1012.0 1011.0 0.0
21/09:00am 35.2 35.8 18.7 37 10.9 NW 13 17 7 9 1012.0 1011.0 2.0
21/08:30am 32.9 35.0 20.1 47 8.5 NW 9 15 5 8 1011.8 1010.8 2.0
21/08:00am 31.9 34.1 21.1 52 7.3 NW 11 13 6 7 1011.5 1010.6 2.0
21/07:30am 30.2 34.7 22.9 65 5.0 WNW 4 9 2 5 1011.3 1010.4 2.0
21/07:00am 27.9 32.7 22.1 70 3.9 CALM 0 0 0 0 1010.9 1010.0 2.0
21/06:30am 26.0 30.9 22.3 80 2.5 CALM 0 0 0 0 1010.7 1009.8 2.0
21/06:00am 25.7 30.2 21.6 78 2.7 CALM 0 0 0 0 1010.3 1009.4 2.0
21/05:30am 26.1 30.6 21.5 76 3.1 CALM 0 2 0 1 1009.9 1009.0 2.0
21/05:00am 27.1 30.7 22.1 74 3.4 NW 6 7 3 4 1009.6 1008.7 2.0
21/04:30am 27.5 31.2 22.2 73 3.6 NNW 6 7 3 4 1009.3 1008.4 2.0
21/04:00am 27.8 31.4 22.3 72 3.7 NNW 7 11 4 6 1009.0 1008.1 2.0
21/03:30am 28.0 31.1 22.2 70 3.9 NNW 9 15 5 8 1009.0 1008.1 2.0
21/03:00am 28.4 31.1 22.2 69 4.2 NNW 11 15 6 8 1008.9 1008.0 2.0
21/02:30am 28.7 31.0 22.0 67 4.5 NNW 13 19 7 10 1008.9 1008.0 2.0
21/02:00am 28.9 31.8 21.7 65 4.9 NNW 9 15 5 8 1008.9 1008.0 2.0
21/01:30am 29.3 31.8 21.8 64 5.1 N 11 15 6 8 1009.1 1008.2 2.0
21/01:00am 29.5 31.6 21.7 63 5.3 N 13 17 7 9 1009.2 1008.3 2.0
21/12:30am 30.1 31.3 21.5 60 5.8 N 17 20 9 11 1009.5 1008.6 2.0
21/12:00am 30.5 31.9 21.0 57 6.4 NNW 15 22 8 12 1009.7 1008.8 2.0
 
Date/Time
EST
Temp
°C
App
Temp
°C
Dew
Point
Rel
Hum
%
Delta-T
°C
Wind Press
QNH
hPa
Press
MSL
hPa
Rain
since 9 am
mm
Dir
 
Spd
km/h
Gust
km/h
Spd
kts
Gust
kts
20/11:30pm 31.1 31.8 20.4 53 7.1 N 17 22 9 12 1009.8 1008.9 2.0
20/11:00pm 31.7 31.7 19.7 49 7.9 N 19 30 10 16 1009.6 1008.7 2.0
20/10:30pm 32.4 32.7 19.6 46 8.5 N 17 26 9 14 1009.5 1008.6 2.0
20/10:00pm 32.1 33.9 21.9 54 7.0 NNE 15 24 8 13 1009.4 1008.5 2.0
20/09:30pm 32.9 34.8 22.7 55 7.0 NNE 17 26 9 14 1009.2 1008.3 2.0
20/09:00pm 33.9 33.9 21.7 49 8.3 NNE 24 37 13 20 1008.8 1007.9 2.0
20/08:30pm 34.6 35.2 21.3 46 9.0 NNE 20 33 11 18 1008.3 1007.4 1.8
20/08:00pm 35.2 36.0 20.7 42 9.8 N 17 30 9 16 1008.2 1007.3 1.8
20/07:30pm 35.6 36.0 20.7 41 10.1 NNE 19 30 10 16 1007.7 1006.8 1.8
20/07:00pm 35.7 35.0 17.4 33 11.9 NE 17 20 9 11 1007.3 1006.3 1.8
20/06:30pm 36.9 40.3 19.4 36 11.7 CALM 0 0 0 0 1007.0 1006.0 1.8
20/06:00pm 37.2 37.3 15.6 27 13.8 N 9 15 5 8 1006.4 1005.4 1.8
20/05:30pm 33.2 30.1 17.4 39 10.2 N 30 41 16 22 1006.8 1005.8 1.8
20/05:17pm 33.4 30.7 17.5 38 10.2 NW 28 43 15 23 1006.7 1005.7 1.6
20/05:00pm 35.3 36.0 18.8 37 10.9 NE 13 20 7 11 1006.7 1005.7 0.6
20/04:30pm 40.6 40.0 14.7 21 16.4 NE 11 20 6 11 1006.1 1005.1 0.0
20/04:00pm 41.5 40.6 10.6 16 18.6 N 6 - 3 - 1006.3 1005.3 0.0
20/03:30pm 41.7 40.5 11.7 17 18.3 NE 9 17 5 9 1006.5 1005.5 0.0
20/03:00pm 42.7 40.3 12.5 17 18.8 NNE 17 24 9 13 1006.8 1005.8 0.0
20/02:30pm 40.9 38.5 12.7 19 17.4 NNE 17 24 9 13 1007.2 1006.2 0.0
20/02:00pm 41.0 38.5 11.1 17 18.1 N 15 26 8 14 1007.7 1006.8 0.0
20/01:30pm 42.0 41.8 11.9 17 18.5 S 4 17 2 9 1008.2 1007.3 0.0
20/01:00pm 41.6 40.0 11.6 17 18.3 NNW 11 17 6 9 1008.9 1008.0 0.0
20/12:30pm 41.7 40.0 12.5 18 18.0 NW 13 20 7 11 1009.5 1008.6 0.0
20/12:00pm 41.8 40.8 13.4 18 17.8 NNE 11 20 6 11 1010.0 1009.1 0.0
20/11:30am 40.8 37.5 10.9 17 18.0 E 19 24 10 13 1010.5 1009.6 0.0
20/11:00am 39.6 39.9 14.6 23 15.8 W 6 11 3 6 1011.0 1010.1 0.0
20/10:30am 37.8 37.7 16.1 27 13.9 NW 11 19 6 10 1011.3 1010.4 0.0
20/10:00am 37.0 37.9 16.5 29 13.2 WNW 7 13 4 7 1011.6 1010.7 0.0
20/09:30am 36.6 37.0 17.2 31 12.6 NW 11 19 6 10 1011.9 1010.9 0.0
20/09:00am 35.8 37.3 18.8 36 11.2 NW 9 15 5 8 1012.1 1011.1 0.0
20/08:30am 33.6 35.6 20.0 44 9.1 NW 9 15 5 8 1011.9 1010.9 0.0
20/08:00am 31.9 35.2 21.4 53 7.1 NNW 6 7 3 4 1011.6 1010.7 0.0
20/07:30am 30.9 35.6 21.9 58 6.1 CALM 0 7 0 4 1011.4 1010.5 0.0
20/07:00am 28.9 33.7 22.2 67 4.6 CALM 0 0 0 0 1011.3 1010.4 0.0
20/06:30am 26.8 31.2 21.3 72 3.7 CALM 0 0 0 0 1011.1 1010.2 0.0
20/06:00am 26.8 31.2 21.3 72 3.7 CALM 0 0 0 0 1010.6 1009.7 0.0
20/05:30am 26.8 31.2 21.3 72 3.7 CALM 0 0 0 0 1010.2 1009.3 0.0
20/05:00am 27.0 31.1 20.8 69 4.1 CALM 0 0 0 0 1009.8 1008.9 0.0
20/04:30am 28.0 31.9 21.1 66 4.6 N 2 7 1 4 1009.5 1008.6 0.0
20/04:00am 28.9 32.1 21.7 65 4.9 N 7 9 4 5 1009.3 1008.4 0.0
20/03:30am 29.2 32.4 21.7 64 5.1 N 7 9 4 5 1009.1 1008.2 0.0
20/03:00am 28.9 32.3 21.7 65 4.9 NNW 6 7 3 4 1009.1 1008.2 0.0
20/02:30am 29.3 33.4 21.5 63 5.3 WNW 2 7 1 4 1009.2 1008.3 0.0
20/02:00am 29.6 33.8 21.0 60 5.8 CALM 0 0 0 0 1009.3 1008.4 0.0
20/01:30am 30.5 33.3 21.6 59 6.0 NNW 9 13 5 7 1009.3 1008.4 0.0
20/01:00am 30.9 33.8 21.7 58 6.2 NNW 9 15 5 8 1009.6 1008.7 0.0
20/12:30am 31.4 32.7 21.6 56 6.6 NNW 17 26 9 14 1009.9 1009.0 0.0
20/12:00am 32.1 33.2 21.3 53 7.3 NNW 17 20 9 11 1009.8 1008.9 0.0
 
Date/Time
EST
Temp
°C
App
Temp
°C
Dew
Point
Rel
Hum
%
Delta-T
°C
Wind Press
QNH
hPa
Press
MSL
hPa
Rain
since 9 am
mm
Dir
 
Spd
km/h
Gust
km/h
Spd
kts
Gust
kts
19/11:30pm 31.0 34.5 21.8 58 6.2 N 6 11 3 6 1009.9 1009.0 0.0
19/11:00pm 31.2 34.3 21.4 56 6.6 N 7 9 4 5 1010.1 1009.2 0.0
19/10:30pm 31.6 34.3 21.4 54 6.9 NNE 9 11 5 6 1010.1 1009.2 0.0
19/10:00pm 32.0 34.4 21.5 53 7.1 NNE 11 15 6 8 1010.1 1009.2 0.0
19/09:30pm 32.8 33.9 21.3 50 7.8 N 17 24 9 13 1009.9 1009.0 0.0
19/09:00pm 33.5 33.5 21.0 48 8.5 N 22 37 12 20 1009.8 1008.9 0.0
19/08:30pm 35.1 34.2 18.2 36 11.1 NE 20 30 11 16 1009.1 1008.2 0.0
19/08:00pm 35.8 36.1 10.8 22 14.8 CALM 0 0 0 0 1008.7 1007.8 0.0
19/07:30pm 37.1 37.3 10.4 20 15.7 CALM 0 0 0 0 1008.5 1007.6 0.0
19/07:00pm 38.3 37.2 9.8 18 16.8 N 6 9 3 5 1008.5 1007.6 0.0
19/06:30pm 38.6 37.8 10.9 19 16.6 NE 6 15 3 8 1008.3 1007.4 0.0
19/06:13pm 38.1 32.3 9.6 18 16.7 E 30 48 16 26 1008.7 1007.8 0.0
19/06:00pm 38.1 35.1 12.0 21 15.8 E 19 33 10 18 1008.5 1007.6 0.0
19/05:30pm 40.0 36.4 12.0 19 17.1 NE 22 32 12 17 1008.0 1007.1 0.0
19/05:14pm 39.9 35.4 12.7 20 16.8 NE 28 35 15 19 1007.8 1006.9 0.0
19/05:00pm 41.7 41.6 10.8 16 18.7 SW 2 9 1 5 1007.8 1006.9 0.0
19/04:30pm 40.6 40.0 11.7 18 17.6 SSE 6 11 3 6 1008.0 1007.1 0.0
19/04:00pm 39.3 39.4 11.4 19 16.9 ENE 2 7 1 4 1008.4 1007.5 0.0
19/03:30pm 39.9 38.0 11.9 19 17.1 ENE 13 20 7 11 1008.8 1007.9 0.0
19/03:00pm 41.4 40.1 11.4 17 18.3 NE 9 15 5 8 1009.1 1008.2 0.0
19/02:30pm 40.0 37.9 11.2 18 17.4 NW 13 19 7 10 1009.6 1008.7 0.0
19/02:00pm 40.2 38.4 12.1 19 17.2 NW 13 26 7 14 1010.3 1009.4 0.0
19/01:30pm 40.4 39.3 13.1 20 16.9 N 11 19 6 10 1011.0 1010.1 0.0
19/01:00pm 39.2 38.8 12.9 21 16.2 ENE 7 17 4 9 1011.4 1010.5 0.0
19/12:30pm 40.1 38.1 12.8 19 16.9 NE 15 22 8 12 1012.1 1011.1 0.0
19/12:00pm 39.0 37.8 12.7 21 16.2 NW 11 19 6 10 1012.7 1011.7 0.0
19/11:30am 40.3 38.4 13.0 20 16.9 NE 15 32 8 17 1013.2 1012.2 0.0
19/11:00am 39.0 38.1 12.7 21 16.1 NNE 9 15 5 8 1013.5 1012.5 0.0
19/10:30am 39.1 37.3 12.0 20 16.5 ENE 13 24 7 13 1013.9 1012.9 0.0
19/10:00am 38.3 37.1 12.8 22 15.6 NE 11 19 6 10 1014.1 1013.1 0.0
19/09:30am 36.6 37.3 16.2 29 13.0 N 7 15 4 8 1014.2 1013.2 0.0
19/09:00am 35.4 37.3 18.9 37 10.9 NNE 7 11 4 6 1014.3 1013.3 0.0
19/08:30am 33.3 35.7 20.1 45 8.8 N 7 11 4 6 1014.3 1013.3 0.0
19/08:00am 32.0 34.9 20.6 51 7.6 NNE 6 9 3 5 1014.1 1013.1 0.0
19/07:30am 30.2 33.7 21.8 60 5.7 N 6 7 3 4 1013.8 1012.8 0.0
19/07:00am 29.6 34.4 22.1 64 5.1 CALM 0 0 0 0 1013.4 1012.4 0.0
19/06:30am 29.2 32.2 21.9 64 4.9 N 9 13 5 7 1012.7 1011.7 0.0
19/06:00am 28.1 32.0 21.9 69 4.2 N 4 7 2 4 1012.3 1011.3 0.0
19/05:30am 27.7 32.3 21.7 70 4.0 CALM 0 0 0 0 1012.0 1011.0 0.0
19/05:00am 27.7 32.4 22.0 71 3.8 CALM 0 0 0 0 1012.1 1011.1 0.0

Other Formats:

Comma delimited format used in spreadsheet applications
http://www.bom.gov.au/fwo/IDQ60801/IDQ60801.94261.axf

JavaScript Object Notation format (JSON) in row-major order
http://www.bom.gov.au/fwo/IDQ60801/IDQ60801.94261.json